Ingleside on the Bay, Texas
Current Conditions -  °F | °C
As of 8:35 AM on Monday 22 Dec 2014 (Local Time) from KTFP Reporting Station
Clear Clear  
Wind Chill: 60°   Ceiling: Unl
Heat Index: 60°   Visibility: 10mi
Dew Point: 58°   Wind: 9mph
Humidity: 92%   Direction: 220°SW
Pressure: 29.79"   Gusts: NA
Location:  27.8594°N, 97.2055°W
Report Text: KTFP 221435Z AUTO 22008KT 10SM CLR 16/14 A2979 RMK AO2 T01560143
Loading
Personal Weather Stations






























Interactive Weather Map New forecast layout! Learn more

10-Day Weather Forecast

Advertisements
Track Severe Weather on mobile